createdAt,value
2022-09-06T00:01:38.829Z,98913.28
2022-09-06T00:06:30.586Z,98924.50
2022-09-06T00:11:22.591Z,98900.44
2022-09-06T00:16:21.038Z,98893.63
2022-09-06T00:21:18.004Z,98890.06
2022-09-06T00:26:09.694Z,98885.97
2022-09-06T00:31:12.682Z,98890.31
2022-09-06T00:36:04.982Z,98884.56
2022-09-06T00:40:57.353Z,98902.56
2022-09-06T00:45:49.397Z,98901.16
2022-09-06T00:50:43.044Z,98891.88
2022-09-06T00:55:34.729Z,98880.38
2022-09-06T01:00:26.411Z,98887.41
2022-09-06T01:05:18.671Z,98892.31
2022-09-06T01:10:22.517Z,98896.66
2022-09-06T01:15:35.154Z,98894.47
2022-09-06T01:21:04.881Z,98892.25
2022-09-06T01:26:25.261Z,98885.19
2022-09-06T01:31:26.903Z,98888.44
2022-09-06T01:36:24.317Z,98887.84
2022-09-06T01:41:15.945Z,98883.19
2022-09-06T01:46:33.394Z,98888.09
2022-09-06T01:51:47.861Z,98887.81
2022-09-06T01:56:51.875Z,98888.34
2022-09-06T02:02:01.648Z,98885.28
2022-09-06T02:07:03.457Z,98862.91
2022-09-06T02:11:59.729Z,98870.28
2022-09-06T02:16:54.027Z,98864.00
2022-09-06T02:21:47.711Z,98862.91
2022-09-06T02:26:43.722Z,98865.31
2022-09-06T02:31:42.692Z,98851.09
2022-09-06T02:36:37.362Z,98863.63
2022-09-06T02:41:31.092Z,98863.34
2022-09-06T02:46:24.500Z,98862.53
2022-09-06T02:51:16.637Z,98847.25
2022-09-06T02:56:08.454Z,98848.91
2022-09-06T03:01:00.248Z,98845.28
2022-09-06T03:05:53.480Z,98846.69
2022-09-06T03:10:50.093Z,98847.22
2022-09-06T03:15:41.802Z,98849.34
2022-09-06T03:20:37.001Z,98842.56
2022-09-06T03:25:29.043Z,98848.84
2022-09-06T03:30:20.669Z,98840.41
2022-09-06T03:35:12.258Z,98843.44
2022-09-06T03:40:05.265Z,98838.78
2022-09-06T03:44:56.988Z,98836.09
2022-09-06T03:49:48.657Z,98824.13
2022-09-06T03:54:40.832Z,98820.31
2022-09-06T03:59:32.690Z,98826.03
2022-09-06T04:04:24.577Z,98830.38
2022-09-06T04:09:16.499Z,98827.91
2022-09-06T04:14:08.189Z,98833.69
2022-09-06T04:19:01.952Z,98826.06
2022-09-06T04:23:53.682Z,98820.34
2022-09-06T04:28:45.373Z,98823.59
2022-09-06T04:33:38.301Z,98811.88
2022-09-06T04:38:31.450Z,98807.50
2022-09-06T04:43:23.615Z,98791.16
2022-09-06T04:48:15.768Z,98779.44
2022-09-06T04:53:08.515Z,98783.53
2022-09-06T04:58:01.446Z,98776.44
2022-09-06T05:02:53.066Z,98769.31
2022-09-06T05:07:44.876Z,98782.44
2022-09-06T05:12:38.840Z,98793.91
2022-09-06T05:17:33.854Z,98790.09
2022-09-06T05:22:25.448Z,98786.56
2022-09-06T05:27:17.039Z,98792.28
2022-09-06T05:32:08.709Z,98789.03
2022-09-06T05:37:00.462Z,98783.88
2022-09-06T05:41:52.146Z,98783.88
2022-09-06T05:46:45.362Z,98787.69
2022-09-06T05:51:37.033Z,98792.63
2022-09-06T05:56:28.977Z,98777.91
2022-09-06T06:01:27.550Z,98775.72
2022-09-06T06:06:20.201Z,98780.13
2022-09-06T06:11:12.258Z,98773.59
2022-09-06T06:16:04.086Z,98772.25
2022-09-06T06:21:08.608Z,98780.97
2022-09-06T06:26:00.225Z,98770.88
2022-09-06T06:30:51.846Z,98761.06
2022-09-06T06:35:57.488Z,98766.78
2022-09-06T06:40:49.108Z,98770.91
2022-09-06T06:45:40.766Z,98772.28
2022-09-06T06:50:32.422Z,98762.50
2022-09-06T06:55:24.012Z,98758.09
2022-09-06T07:00:15.808Z,98758.94
2022-09-06T07:10:35.573Z,98760.88
2022-09-06T07:15:27.438Z,98747.50
2022-09-06T07:20:20.564Z,98749.41
2022-09-06T07:25:16.417Z,98760.06
2022-09-06T07:30:11.446Z,98771.28
2022-09-06T07:35:03.093Z,98762.56
2022-09-06T07:39:54.759Z,98758.75
2022-09-06T07:44:46.511Z,98767.47
2022-09-06T07:49:38.165Z,98754.66
2022-09-06T07:54:31.007Z,98753.28
2022-09-06T07:59:23.176Z,98744.00
2022-09-06T08:04:14.908Z,98742.91
2022-09-06T08:09:08.916Z,98752.50
2022-09-06T08:14:02.339Z,98751.41
2022-09-06T08:18:56.178Z,98754.97
2022-09-06T08:23:53.118Z,98742.38
2022-09-06T08:28:45.062Z,98741.84
2022-09-06T08:33:37.706Z,98741.03
2022-09-06T08:38:29.735Z,98738.81
2022-09-06T08:43:22.982Z,98743.19
2022-09-06T08:48:15.212Z,98742.09
2022-09-06T08:53:17.963Z,98732.50
2022-09-06T08:58:20.523Z,98736.25
2022-09-06T09:03:17.202Z,98740.22
2022-09-06T09:08:29.993Z,98750.44
2022-09-06T09:13:32.409Z,98757.00
2022-09-06T09:18:30.411Z,98749.00
2022-09-06T09:23:22.076Z,98735.31
2022-09-06T09:28:19.034Z,98745.19
2022-09-06T09:33:25.873Z,98741.25
2022-09-06T09:38:30.000Z,98737.88
2022-09-06T09:43:24.804Z,98734.53
2022-09-06T09:48:24.909Z,98728.19
2022-09-06T09:53:21.582Z,98742.75
2022-09-06T09:58:34.288Z,98737.66
2022-09-06T10:03:29.749Z,98741.47
2022-09-06T10:08:25.114Z,98739.53
2022-09-06T10:13:20.223Z,98744.72
2022-09-06T10:18:20.682Z,98746.25
2022-09-06T10:29:04.218Z,98729.31
2022-09-06T10:34:17.576Z,98731.19
2022-09-06T10:39:31.364Z,98736.09
2022-09-06T10:44:52.139Z,98731.56
2022-09-06T10:49:56.307Z,98748.97
2022-09-06T10:54:48.603Z,98738.56
2022-09-06T10:59:51.879Z,98749.09
2022-09-06T11:10:07.859Z,98720.78
2022-09-06T11:15:03.158Z,98720.66
2022-09-06T11:20:29.818Z,98698.06
2022-09-06T11:25:52.428Z,98694.16
2022-09-06T11:30:50.570Z,98687.88
2022-09-06T11:35:42.888Z,98695.22
2022-09-06T11:40:41.656Z,98688.97
2022-09-06T11:45:45.101Z,98686.94
2022-09-06T11:50:59.537Z,98667.94
2022-09-06T11:56:11.777Z,98670.78
2022-09-06T12:01:12.530Z,98663.72
2022-09-06T12:06:25.063Z,98666.16
2022-09-06T12:11:39.251Z,98643.03
2022-09-06T12:16:55.885Z,98639.19
2022-09-06T12:21:47.804Z,98635.59
2022-09-06T12:27:08.279Z,98620.78
2022-09-06T12:32:05.859Z,98624.16
2022-09-06T12:37:04.542Z,98620.97
2022-09-06T12:42:00.405Z,98597.91
2022-09-06T12:46:52.306Z,98588.28
2022-09-06T12:51:44.373Z,98583.97
2022-09-06T12:56:36.121Z,98568.84
2022-09-06T13:01:33.807Z,98567.81
2022-09-06T13:06:27.494Z,98561.31
2022-09-06T13:11:28.461Z,98554.81
2022-09-06T13:16:26.929Z,98540.34
2022-09-06T13:21:32.933Z,98536.50
2022-09-06T13:26:40.498Z,98533.09
2022-09-06T13:31:32.859Z,98531.31
2022-09-06T13:36:32.331Z,98529.78
2022-09-06T13:41:27.146Z,98511.00
2022-09-06T13:46:18.850Z,98516.78
2022-09-06T13:51:10.638Z,98508.50
2022-09-06T13:56:02.972Z,98508.97
2022-09-06T14:00:54.846Z,98500.72
2022-09-06T14:05:47.478Z,98489.03
2022-09-06T14:10:39.394Z,98495.56
2022-09-06T14:15:31.119Z,98485.38
2022-09-06T14:20:22.898Z,98480.94
2022-09-06T14:25:14.577Z,98474.56
2022-09-06T14:30:06.710Z,98466.50
2022-09-06T14:34:58.769Z,98468.78
2022-09-06T14:40:27.676Z,98464.75
2022-09-06T14:45:20.033Z,98447.38
2022-09-06T14:50:12.229Z,98439.91
2022-09-06T14:55:04.254Z,98436.69
2022-09-06T14:59:56.329Z,98452.06
2022-09-06T15:04:48.305Z,98440.31
2022-09-06T15:09:40.241Z,98446.28
2022-09-06T15:14:32.002Z,98432.47
2022-09-06T15:19:25.114Z,98443.16
2022-09-06T15:24:17.432Z,98437.66
2022-09-06T15:29:11.868Z,98437.81
2022-09-06T15:34:03.705Z,98430.50
2022-09-06T15:38:59.981Z,98439.88
2022-09-06T15:43:54.945Z,98412.94
2022-09-06T15:48:49.166Z,98423.97
2022-09-06T15:53:41.414Z,98421.53
2022-09-06T15:58:33.556Z,98425.41
2022-09-06T16:03:25.369Z,98412.22
2022-09-06T16:08:17.439Z,98422.06
2022-09-06T16:13:09.114Z,98406.81
2022-09-06T16:18:05.516Z,98413.47
2022-09-06T16:22:58.174Z,98409.88
2022-09-06T16:27:49.991Z,98400.66
2022-09-06T16:32:41.879Z,98405.31
2022-09-06T16:37:33.717Z,98405.72
2022-09-06T16:42:25.586Z,98397.47
2022-09-06T16:47:17.380Z,98400.75
2022-09-06T16:52:09.190Z,98397.53
2022-09-06T16:57:01.744Z,98390.38
2022-09-06T17:01:56.162Z,98389.72
2022-09-06T17:06:48.081Z,98388.53
2022-09-06T17:11:40.365Z,98381.53
2022-09-06T17:16:50.742Z,98388.16
2022-09-06T17:21:42.739Z,98392.88
2022-09-06T17:26:36.652Z,98391.22
2022-09-06T17:31:28.731Z,98388.41
2022-09-06T17:36:32.613Z,98386.91
2022-09-06T17:41:28.059Z,98380.34
2022-09-06T17:46:24.205Z,98373.47
2022-09-06T17:51:18.985Z,98363.38
2022-09-06T17:56:13.373Z,98383.56
2022-09-06T18:01:10.531Z,98394.56
2022-09-06T18:06:07.970Z,98400.38
2022-09-06T18:10:59.734Z,98404.28
2022-09-06T18:15:51.383Z,98408.19
2022-09-06T18:20:43.101Z,98407.56
2022-09-06T18:25:34.878Z,98404.53
2022-09-06T18:30:26.566Z,98397.63
2022-09-06T18:35:18.293Z,98398.66
2022-09-06T18:40:10.372Z,98399.13
2022-09-06T18:45:02.154Z,98391.91
2022-09-06T18:49:53.803Z,98386.31
2022-09-06T18:54:45.449Z,98405.94
2022-09-06T18:59:37.350Z,98408.75
2022-09-06T19:04:29.158Z,98401.22
2022-09-06T19:09:20.854Z,98406.81
2022-09-06T19:14:13.760Z,98408.63
2022-09-06T19:19:08.452Z,98410.13
2022-09-06T19:24:06.191Z,98409.88
2022-09-06T19:29:00.416Z,98418.59
2022-09-06T19:33:52.223Z,98417.06
2022-09-06T19:39:02.677Z,98407.03
2022-09-06T19:43:57.014Z,98418.38
2022-09-06T19:48:51.314Z,98420.06
2022-09-06T19:53:46.985Z,98413.56
2022-09-06T19:58:39.851Z,98421.03
2022-09-06T20:03:32.754Z,98414.22
2022-09-06T20:08:25.058Z,98400.81
2022-09-06T20:13:16.765Z,98416.97
2022-09-06T20:18:08.419Z,98412.31
2022-09-06T20:23:00.078Z,98418.38
2022-09-06T20:27:51.751Z,98429.41
2022-09-06T20:32:43.442Z,98415.47
2022-09-06T20:37:37.598Z,98418.91
2022-09-06T20:42:29.256Z,98417.63
2022-09-06T20:47:21.230Z,98415.53
2022-09-06T20:52:12.870Z,98414.78
2022-09-06T20:57:04.753Z,98431.88
2022-09-06T21:01:56.634Z,98418.31
2022-09-06T21:06:51.010Z,98419.22
2022-09-06T21:11:43.391Z,98426.16
2022-09-06T21:16:36.588Z,98417.19
2022-09-06T21:21:30.106Z,98409.00
2022-09-06T21:26:22.601Z,98421.09
2022-09-06T21:31:22.051Z,98395.38
2022-09-06T21:36:16.886Z,98403.06
2022-09-06T21:41:10.317Z,98398.69
2022-09-06T21:46:23.027Z,98390.78
2022-09-06T21:51:17.484Z,98402.00
2022-09-06T21:56:09.346Z,98398.75
2022-09-06T22:01:02.238Z,98396.06
2022-09-06T22:05:55.199Z,98385.19
2022-09-06T22:10:48.749Z,98387.97
2022-09-06T22:15:40.491Z,98392.91
2022-09-06T22:20:32.289Z,98393.47
2022-09-06T22:25:23.932Z,98405.00
2022-09-06T22:30:15.633Z,98390.56
2022-09-06T22:35:07.921Z,98388.69
2022-09-06T22:40:00.954Z,98396.91
2022-09-06T22:44:53.341Z,98381.00
2022-09-06T22:49:44.989Z,98391.38
2022-09-06T22:54:38.150Z,98386.72
2022-09-06T22:59:29.800Z,98383.47
2022-09-06T23:04:21.632Z,98375.75
2022-09-06T23:09:13.441Z,98386.19
2022-09-06T23:14:05.244Z,98377.50
2022-09-06T23:18:56.893Z,98380.53
2022-09-06T23:23:50.640Z,98377.78
2022-09-06T23:28:42.652Z,98380.53
2022-09-06T23:33:36.259Z,98370.72
2022-09-06T23:38:28.217Z,98366.69
2022-09-06T23:43:20.775Z,98368.69
2022-09-06T23:48:12.447Z,98367.38
2022-09-06T23:53:04.071Z,98354.59
2022-09-06T23:57:55.680Z,98363.41
